createdAt,value
2022-11-06T00:00:39.156Z,13.18
2022-11-06T00:03:08.677Z,11.95
2022-11-06T00:05:58.144Z,10.98
2022-11-06T00:08:33.002Z,8.73
2022-11-06T00:11:01.152Z,12.43
2022-11-06T00:13:29.805Z,12.88
2022-11-06T00:16:00.466Z,10.40
2022-11-06T00:18:29.774Z,10.80
2022-11-06T00:21:00.518Z,10.93
2022-11-06T00:23:28.341Z,14.65
2022-11-06T00:25:56.875Z,12.23
2022-11-06T00:28:24.915Z,12.90
2022-11-06T00:30:53.178Z,14.07
2022-11-06T00:33:21.101Z,14.40
2022-11-06T00:35:50.252Z,9.82
2022-11-06T00:38:18.376Z,11.48
2022-11-06T00:40:46.208Z,10.88
2022-11-06T00:43:14.294Z,9.73
2022-11-06T00:45:42.372Z,13.07
2022-11-06T00:48:10.897Z,10.15
2022-11-06T00:50:39.264Z,10.65
2022-11-06T00:53:09.243Z,12.10
2022-11-06T00:55:37.403Z,10.13
2022-11-06T00:58:05.582Z,10.35
2022-11-06T01:00:33.435Z,10.88
2022-11-06T01:03:01.698Z,11.57
2022-11-06T01:05:29.836Z,12.10
2022-11-06T01:07:57.720Z,15.88
2022-11-06T01:10:26.965Z,8.60
2022-11-06T01:12:55.002Z,10.18
2022-11-06T01:15:22.894Z,9.63
2022-11-06T01:17:50.953Z,11.60
2022-11-06T01:20:21.540Z,8.73
2022-11-06T01:22:49.534Z,11.27
2022-11-06T01:25:17.698Z,9.15
2022-11-06T01:27:47.601Z,8.82
2022-11-06T01:30:17.835Z,9.00
2022-11-06T01:32:50.383Z,9.68
2022-11-06T01:35:18.446Z,10.27
2022-11-06T01:37:46.989Z,11.13
2022-11-06T01:40:16.730Z,13.60
2022-11-06T01:42:45.898Z,11.65
2022-11-06T01:45:34.600Z,8.02
2022-11-06T01:48:06.220Z,11.10
2022-11-06T01:50:35.227Z,10.52
2022-11-06T01:53:04.104Z,12.05
2022-11-06T01:55:35.898Z,11.43
2022-11-06T01:58:08.050Z,8.00
2022-11-06T02:00:43.466Z,9.60
2022-11-06T02:03:12.857Z,15.13
2022-11-06T02:05:40.907Z,11.57
2022-11-06T02:08:13.050Z,10.30
2022-11-06T02:10:41.342Z,8.82
2022-11-06T02:13:16.623Z,7.68
2022-11-06T02:15:48.243Z,5.82
2022-11-06T02:18:24.755Z,11.73
2022-11-06T02:21:04.645Z,11.02
2022-11-06T02:23:39.028Z,8.73
2022-11-06T02:26:14.330Z,10.85
2022-11-06T02:28:52.079Z,8.57
2022-11-06T02:31:24.335Z,10.88
2022-11-06T02:33:55.592Z,9.97
2022-11-06T02:36:26.797Z,11.45
2022-11-06T02:38:56.367Z,7.80
2022-11-06T02:41:28.995Z,10.57
2022-11-06T02:44:02.790Z,10.93
2022-11-06T02:46:33.488Z,13.65
2022-11-06T02:49:09.238Z,13.73
2022-11-06T02:51:39.596Z,10.60
2022-11-06T02:54:08.217Z,11.90
2022-11-06T02:56:37.713Z,7.38
2022-11-06T02:59:10.773Z,13.80
2022-11-06T03:01:40.962Z,7.93
2022-11-06T03:04:13.456Z,8.40
2022-11-06T03:06:44.660Z,5.68
2022-11-06T03:09:14.634Z,10.23
2022-11-06T03:11:43.051Z,7.00
2022-11-06T03:14:16.928Z,7.55
2022-11-06T03:16:49.902Z,10.18
2022-11-06T03:21:54.167Z,8.27
2022-11-06T03:24:30.901Z,7.63
2022-11-06T03:27:00.109Z,6.65
2022-11-06T03:29:34.025Z,11.80
2022-11-06T03:32:06.610Z,8.27
2022-11-06T03:34:37.494Z,8.98
2022-11-06T03:37:08.260Z,8.70
2022-11-06T03:39:38.399Z,7.45
2022-11-06T03:42:07.415Z,8.55
2022-11-06T03:44:39.673Z,7.85
2022-11-06T03:47:09.699Z,9.95
2022-11-06T03:49:41.662Z,9.10
2022-11-06T03:52:14.581Z,7.85
2022-11-06T03:54:45.403Z,8.80
2022-11-06T03:57:15.349Z,9.63
2022-11-06T03:59:47.937Z,6.72
2022-11-06T04:02:17.226Z,9.05
2022-11-06T04:04:48.841Z,8.35
2022-11-06T04:07:18.138Z,10.07
2022-11-06T04:10:04.776Z,8.88
2022-11-06T04:12:52.023Z,11.00
2022-11-06T04:15:21.848Z,5.70
2022-11-06T04:17:50.751Z,5.28
2022-11-06T04:20:34.288Z,6.95
2022-11-06T04:23:07.252Z,7.68
2022-11-06T04:28:29.316Z,15.80
2022-11-06T04:31:03.531Z,10.20
2022-11-06T04:33:51.282Z,7.63
2022-11-06T04:36:23.482Z,5.13
2022-11-06T04:38:59.665Z,9.65
2022-11-06T04:41:34.404Z,9.38
2022-11-06T04:44:04.644Z,8.95
2022-11-06T04:46:36.125Z,5.53
2022-11-06T04:49:06.169Z,5.82
2022-11-06T04:51:35.928Z,6.85
2022-11-06T04:54:04.987Z,8.05
2022-11-06T04:56:35.603Z,10.07
2022-11-06T04:59:05.086Z,7.28
2022-11-06T05:01:34.953Z,7.60
2022-11-06T05:04:03.303Z,10.75
2022-11-06T05:06:31.281Z,7.53
2022-11-06T05:08:59.925Z,8.63
2022-11-06T05:11:27.986Z,6.80
2022-11-06T05:13:56.861Z,8.27
2022-11-06T05:16:25.152Z,7.35
2022-11-06T05:18:55.156Z,6.25
2022-11-06T05:21:40.930Z,5.50
2022-11-06T05:24:09.899Z,6.68
2022-11-06T05:26:41.176Z,11.18
2022-11-06T05:29:10.961Z,8.32
2022-11-06T05:31:38.974Z,10.18
2022-11-06T05:34:09.273Z,7.40
2022-11-06T05:36:37.614Z,9.13
2022-11-06T05:39:05.525Z,9.32
2022-11-06T05:41:35.086Z,10.38
2022-11-06T05:44:03.055Z,14.15
2022-11-06T05:46:49.175Z,11.60
2022-11-06T05:49:19.318Z,9.52
2022-11-06T05:51:47.530Z,12.80
2022-11-06T05:54:15.462Z,12.00
2022-11-06T05:56:43.394Z,10.13
2022-11-06T05:59:11.338Z,10.70
2022-11-06T06:01:39.436Z,7.30
2022-11-06T06:04:07.734Z,10.48
2022-11-06T06:06:37.322Z,8.20
2022-11-06T06:09:05.260Z,8.80
2022-11-06T06:11:33.200Z,9.30
2022-11-06T06:14:01.823Z,9.55
2022-11-06T06:16:29.811Z,8.48
2022-11-06T06:18:57.707Z,12.50
2022-11-06T06:24:09.036Z,10.75
2022-11-06T06:26:36.980Z,10.07
2022-11-06T06:29:05.089Z,7.55
2022-11-06T06:31:33.191Z,8.23
2022-11-06T06:34:01.019Z,10.95
2022-11-06T06:36:28.895Z,9.13
2022-11-06T06:38:57.685Z,12.50
2022-11-06T06:41:27.041Z,12.85
2022-11-06T06:43:55.245Z,9.90
2022-11-06T06:46:23.068Z,9.38
2022-11-06T06:48:50.964Z,17.55
2022-11-06T06:51:23.763Z,10.10
2022-11-06T06:53:52.316Z,9.63
2022-11-06T06:56:20.126Z,11.07
2022-11-06T06:58:49.667Z,11.38
2022-11-06T07:01:17.549Z,13.02
2022-11-06T07:03:45.971Z,10.93
2022-11-06T07:06:15.613Z,10.25
2022-11-06T07:08:43.511Z,10.25
2022-11-06T07:11:12.499Z,18.85
2022-11-06T07:13:43.375Z,11.25
2022-11-06T07:16:12.970Z,13.27
2022-11-06T07:18:41.135Z,11.60
2022-11-06T07:21:09.982Z,11.20
2022-11-06T07:23:38.153Z,10.32
2022-11-06T07:26:06.335Z,10.68
2022-11-06T07:28:34.639Z,11.32
2022-11-06T07:31:03.663Z,14.10
2022-11-06T07:33:32.916Z,15.30
2022-11-06T07:36:04.153Z,10.38
2022-11-06T07:38:43.954Z,14.50
2022-11-06T07:41:12.682Z,17.27
2022-11-06T07:43:40.885Z,13.13
2022-11-06T07:46:12.390Z,16.02
2022-11-06T07:48:41.871Z,15.40
2022-11-06T07:51:10.937Z,16.65
2022-11-06T07:53:39.316Z,12.32
2022-11-06T07:56:08.812Z,12.38
2022-11-06T07:58:36.706Z,15.18
2022-11-06T08:01:04.654Z,18.92
2022-11-06T08:03:32.781Z,15.10
2022-11-06T08:06:04.293Z,10.32
2022-11-06T08:08:32.744Z,10.63
2022-11-06T08:11:02.912Z,12.35
2022-11-06T08:13:31.071Z,12.50
2022-11-06T08:15:58.970Z,13.13
2022-11-06T08:18:26.868Z,14.27
2022-11-06T08:20:55.354Z,13.80
2022-11-06T08:23:24.520Z,12.13
2022-11-06T08:25:54.902Z,11.07
2022-11-06T08:28:26.234Z,10.60
2022-11-06T08:30:54.582Z,14.70
2022-11-06T08:33:22.982Z,10.57
2022-11-06T08:35:50.906Z,12.27
2022-11-06T08:38:19.344Z,13.70
2022-11-06T08:40:53.464Z,13.27
2022-11-06T08:43:24.159Z,11.15
2022-11-06T08:45:52.213Z,9.73
2022-11-06T08:48:20.364Z,11.35
2022-11-06T08:50:48.234Z,10.52
2022-11-06T08:53:16.469Z,10.20
2022-11-06T08:55:44.987Z,9.65
2022-11-06T08:58:17.180Z,13.48
2022-11-06T09:00:45.461Z,8.97
2022-11-06T09:03:15.109Z,7.35
2022-11-06T09:05:46.287Z,10.30
2022-11-06T09:08:14.609Z,13.05
2022-11-06T09:10:43.101Z,13.00
2022-11-06T09:13:14.539Z,10.00
2022-11-06T09:15:43.850Z,6.78
2022-11-06T09:18:11.821Z,13.82
2022-11-06T09:20:39.653Z,10.25
2022-11-06T09:23:08.693Z,8.15
2022-11-06T09:25:36.577Z,9.52
2022-11-06T09:28:04.463Z,7.70
2022-11-06T09:30:32.671Z,8.57
2022-11-06T09:33:02.766Z,8.18
2022-11-06T09:35:32.316Z,5.40
2022-11-06T09:38:03.926Z,5.70
2022-11-06T09:40:33.852Z,4.75
2022-11-06T09:43:04.916Z,7.07
2022-11-06T09:45:34.658Z,7.55
2022-11-06T09:48:07.801Z,8.30
2022-11-06T09:53:07.538Z,9.93
2022-11-06T09:55:41.425Z,7.88
2022-11-06T09:58:13.169Z,4.38
2022-11-06T10:00:41.930Z,10.57
2022-11-06T10:03:16.019Z,8.00
2022-11-06T10:05:44.892Z,8.45
2022-11-06T10:08:16.328Z,4.65
2022-11-06T10:10:47.712Z,9.43
2022-11-06T10:13:22.184Z,4.78
2022-11-06T10:15:53.361Z,3.92
2022-11-06T10:18:27.423Z,11.70
2022-11-06T10:20:58.462Z,9.93
2022-11-06T10:23:32.407Z,6.07
2022-11-06T10:26:06.081Z,9.60
2022-11-06T10:28:52.891Z,7.20
2022-11-06T10:31:25.869Z,8.30
2022-11-06T10:33:58.334Z,6.45
2022-11-06T10:36:29.626Z,6.13
2022-11-06T10:38:59.629Z,6.75
2022-11-06T10:41:28.280Z,7.05
2022-11-06T10:43:57.896Z,10.77
2022-11-06T10:46:28.822Z,7.95
2022-11-06T10:48:59.375Z,10.23
2022-11-06T10:51:36.462Z,9.18
2022-11-06T10:54:10.202Z,8.65
2022-11-06T10:56:47.210Z,5.38
2022-11-06T10:59:15.537Z,4.43
2022-11-06T11:01:43.577Z,6.72
2022-11-06T11:04:12.851Z,4.95
2022-11-06T11:06:41.254Z,4.75
2022-11-06T11:09:27.887Z,6.03
2022-11-06T11:11:55.717Z,6.15
2022-11-06T11:14:24.860Z,6.20
2022-11-06T11:16:53.005Z,7.28
2022-11-06T11:19:26.916Z,3.38
2022-11-06T11:21:56.073Z,7.50
2022-11-06T11:24:23.962Z,7.22
2022-11-06T11:26:53.701Z,10.00
2022-11-06T11:29:24.399Z,6.38
2022-11-06T11:31:53.185Z,3.00
2022-11-06T11:34:23.062Z,5.47
2022-11-06T11:36:59.962Z,6.63
2022-11-06T11:39:32.791Z,6.80
2022-11-06T11:42:33.595Z,4.85
2022-11-06T11:45:14.352Z,6.45
2022-11-06T11:47:43.253Z,3.92
2022-11-06T11:50:25.404Z,6.45
2022-11-06T11:52:56.670Z,6.28
2022-11-06T11:55:26.655Z,3.63
2022-11-06T11:57:56.140Z,5.05
2022-11-06T12:00:24.665Z,13.30
2022-11-06T12:02:54.034Z,7.25
2022-11-06T12:05:23.346Z,5.93
2022-11-06T12:07:54.175Z,4.18
2022-11-06T12:10:27.475Z,4.80
2022-11-06T12:12:56.495Z,7.57
2022-11-06T12:15:26.506Z,3.78
2022-11-06T12:17:56.127Z,3.63
2022-11-06T12:20:26.149Z,5.63
2022-11-06T12:22:55.722Z,4.90
2022-11-06T12:25:26.403Z,5.60
2022-11-06T12:27:55.672Z,3.17
2022-11-06T12:30:23.481Z,3.65
2022-11-06T12:32:58.300Z,3.47
2022-11-06T12:35:27.993Z,2.72
2022-11-06T12:37:59.314Z,4.35
2022-11-06T12:40:30.744Z,4.82
2022-11-06T12:43:03.348Z,4.57
2022-11-06T12:45:37.365Z,5.40
2022-11-06T12:48:09.586Z,5.03
2022-11-06T12:50:39.777Z,5.73
2022-11-06T12:53:13.383Z,7.75
2022-11-06T12:55:44.640Z,6.22
2022-11-06T12:58:18.870Z,6.18
2022-11-06T13:00:52.214Z,2.42
2022-11-06T13:03:36.569Z,6.28
2022-11-06T13:06:10.478Z,3.42
2022-11-06T13:08:46.327Z,3.13
2022-11-06T13:11:24.869Z,4.20
2022-11-06T13:13:57.963Z,3.75
2022-11-06T13:18:55.081Z,5.85
2022-11-06T13:21:26.714Z,2.03
2022-11-06T13:23:56.951Z,3.55
2022-11-06T13:26:28.573Z,3.25
2022-11-06T13:28:58.057Z,4.60
2022-11-06T13:31:28.430Z,5.97
2022-11-06T13:33:59.076Z,4.38
2022-11-06T13:36:28.138Z,4.03
2022-11-06T13:38:57.133Z,5.10
2022-11-06T13:41:28.635Z,2.25
2022-11-06T13:43:59.895Z,2.65
2022-11-06T13:46:31.744Z,4.63
2022-11-06T13:49:03.713Z,4.32
2022-11-06T13:51:38.185Z,3.97
2022-11-06T13:54:11.778Z,2.72
2022-11-06T13:57:03.690Z,1.50
2022-11-06T13:59:46.442Z,1.92
2022-11-06T14:02:24.263Z,3.75
2022-11-06T14:05:11.999Z,2.30
2022-11-06T14:07:41.296Z,2.97
2022-11-06T14:10:18.719Z,4.03
2022-11-06T14:12:47.199Z,3.25
2022-11-06T14:15:17.299Z,7.85
2022-11-06T14:17:55.690Z,5.65
2022-11-06T14:20:31.040Z,4.40
2022-11-06T14:23:13.892Z,3.53
2022-11-06T14:25:59.284Z,4.65
2022-11-06T14:28:31.295Z,2.97
2022-11-06T14:31:15.559Z,1.77
2022-11-06T14:34:02.790Z,2.75
2022-11-06T14:36:36.524Z,2.63
2022-11-06T14:39:10.244Z,4.75
2022-11-06T14:41:53.188Z,2.22
2022-11-06T14:44:39.504Z,4.93
2022-11-06T14:47:08.624Z,2.55
2022-11-06T14:49:38.849Z,2.50
2022-11-06T14:52:09.589Z,3.35
2022-11-06T14:54:40.284Z,3.88
2022-11-06T14:57:09.703Z,1.33
2022-11-06T14:59:39.023Z,3.10
2022-11-06T15:02:14.949Z,4.40
2022-11-06T15:04:45.251Z,3.08
2022-11-06T15:08:02.647Z,4.05
2022-11-06T15:10:32.514Z,1.65
2022-11-06T15:13:11.917Z,2.20
2022-11-06T15:15:41.382Z,3.92
2022-11-06T15:18:11.342Z,3.47
2022-11-06T15:20:39.959Z,3.00
2022-11-06T15:23:20.673Z,4.07
2022-11-06T15:25:51.513Z,3.97
2022-11-06T15:28:20.858Z,3.42
2022-11-06T15:30:50.416Z,4.40
2022-11-06T15:33:20.509Z,3.67
2022-11-06T15:35:49.623Z,4.65
2022-11-06T15:38:21.390Z,3.05
2022-11-06T15:40:51.111Z,3.03
2022-11-06T15:43:25.389Z,3.58
2022-11-06T15:46:17.351Z,3.60
2022-11-06T15:48:45.889Z,4.15
2022-11-06T15:51:24.154Z,4.47
2022-11-06T15:53:53.511Z,5.28
2022-11-06T15:56:23.368Z,3.17
2022-11-06T15:59:06.047Z,4.10
2022-11-06T16:01:34.586Z,5.03
2022-11-06T16:04:05.815Z,6.18
2022-11-06T16:06:34.353Z,5.05
2022-11-06T16:09:04.685Z,5.32
2022-11-06T16:11:32.724Z,4.47
2022-11-06T16:14:00.940Z,3.85
2022-11-06T16:16:36.783Z,6.15
2022-11-06T16:19:05.897Z,5.38
2022-11-06T16:21:34.868Z,4.57
2022-11-06T16:24:05.707Z,7.13
2022-11-06T16:26:37.922Z,9.55
2022-11-06T16:29:10.899Z,10.83
2022-11-06T16:31:39.293Z,17.25
2022-11-06T16:34:07.779Z,9.15
2022-11-06T16:36:50.149Z,9.90
2022-11-06T16:39:50.367Z,10.53
2022-11-06T16:42:25.971Z,8.95
2022-11-06T16:45:01.298Z,10.10
2022-11-06T16:47:29.172Z,7.72
2022-11-06T16:49:58.134Z,6.25
2022-11-06T16:52:27.032Z,8.18
2022-11-06T16:54:58.273Z,5.13
2022-11-06T16:57:27.224Z,6.07
2022-11-06T16:59:56.719Z,11.27
2022-11-06T17:02:25.697Z,10.95
2022-11-06T17:05:07.330Z,7.13
2022-11-06T17:07:35.231Z,8.13
2022-11-06T17:10:17.968Z,5.80
2022-11-06T17:12:47.132Z,7.03
2022-11-06T17:15:15.004Z,5.57
2022-11-06T17:17:43.312Z,5.13
2022-11-06T17:20:12.881Z,6.15
2022-11-06T17:22:40.801Z,6.03
2022-11-06T17:25:09.333Z,9.48
2022-11-06T17:27:37.254Z,4.97
2022-11-06T17:30:07.909Z,6.50
2022-11-06T17:32:35.810Z,6.68
2022-11-06T17:35:03.757Z,8.02
2022-11-06T17:37:31.919Z,6.90
2022-11-06T17:39:59.985Z,4.45
2022-11-06T17:42:27.868Z,5.80
2022-11-06T17:44:56.036Z,7.13
2022-11-06T17:47:25.236Z,6.53
2022-11-06T17:49:53.103Z,7.82
2022-11-06T17:52:21.526Z,6.43
2022-11-06T17:54:49.740Z,6.88
2022-11-06T17:57:23.733Z,5.95
2022-11-06T17:59:52.072Z,6.60
2022-11-06T18:02:40.798Z,6.10
2022-11-06T18:05:09.760Z,8.07
2022-11-06T18:07:37.731Z,7.03
2022-11-06T18:10:05.930Z,7.03
2022-11-06T18:12:34.056Z,7.93
2022-11-06T18:15:01.917Z,8.80
2022-11-06T18:17:29.719Z,6.88
2022-11-06T18:19:57.865Z,7.75
2022-11-06T18:22:27.066Z,7.47
2022-11-06T18:24:54.934Z,7.22
2022-11-06T18:27:22.732Z,8.77
2022-11-06T18:29:50.843Z,7.13
2022-11-06T18:32:19.219Z,11.38
2022-11-06T18:34:47.050Z,8.70
2022-11-06T18:37:15.541Z,8.27
2022-11-06T18:39:44.715Z,7.82
2022-11-06T18:42:12.831Z,7.43
2022-11-06T18:44:41.519Z,6.72
2022-11-06T18:47:09.381Z,9.45
2022-11-06T18:49:37.186Z,10.02
2022-11-06T18:52:05.313Z,7.38
2022-11-06T18:54:33.154Z,8.43
2022-11-06T18:57:02.636Z,8.27
2022-11-06T18:59:30.620Z,8.27
2022-11-06T19:01:58.945Z,9.50
2022-11-06T19:04:27.822Z,10.38
2022-11-06T19:06:55.854Z,9.95
2022-11-06T19:09:23.887Z,8.25
2022-11-06T19:11:51.700Z,7.90
2022-11-06T19:14:21.258Z,8.40
2022-11-06T19:16:52.893Z,8.68
2022-11-06T19:19:25.428Z,7.78
2022-11-06T19:21:53.971Z,10.88
2022-11-06T19:24:22.168Z,7.10
2022-11-06T19:26:50.343Z,7.28
2022-11-06T19:29:18.229Z,8.85
2022-11-06T19:31:47.437Z,8.32
2022-11-06T19:34:16.984Z,7.00
2022-11-06T19:36:44.846Z,6.22
2022-11-06T19:39:14.143Z,9.65
2022-11-06T19:41:42.011Z,8.60
2022-11-06T19:44:10.361Z,7.10
2022-11-06T19:46:38.384Z,6.75
2022-11-06T19:49:08.622Z,6.97
2022-11-06T19:51:37.513Z,6.72
2022-11-06T19:54:07.583Z,6.00
2022-11-06T19:57:28.646Z,6.75
2022-11-06T19:59:25.841Z,7.75
2022-11-06T20:01:54.005Z,8.15
2022-11-06T20:04:23.222Z,6.30
2022-11-06T20:06:51.472Z,7.78
2022-11-06T20:09:19.480Z,6.25
2022-11-06T20:11:47.306Z,6.32
2022-11-06T20:14:18.593Z,9.00
2022-11-06T20:16:46.628Z,6.18
2022-11-06T20:19:14.462Z,6.32
2022-11-06T20:21:43.838Z,10.23
2022-11-06T20:24:11.965Z,6.63
2022-11-06T20:26:42.726Z,8.60
2022-11-06T20:29:10.602Z,8.60
2022-11-06T20:31:39.131Z,7.43
2022-11-06T20:34:07.047Z,8.63
2022-11-06T20:36:35.776Z,10.77
2022-11-06T20:39:05.342Z,9.48
2022-11-06T20:41:33.342Z,10.52
2022-11-06T20:44:01.150Z,8.68
2022-11-06T20:46:28.969Z,9.02
2022-11-06T20:48:58.041Z,8.23
2022-11-06T20:51:27.168Z,6.43
2022-11-06T20:53:55.122Z,6.85
2022-11-06T20:56:25.590Z,7.28
2022-11-06T20:58:54.131Z,8.30
2022-11-06T21:01:23.122Z,7.20
2022-11-06T21:03:51.416Z,8.57
2022-11-06T21:06:19.629Z,7.65
2022-11-06T21:08:48.498Z,9.20
2022-11-06T21:11:18.002Z,11.02
2022-11-06T21:13:50.282Z,8.75
2022-11-06T21:16:19.557Z,7.53
2022-11-06T21:18:47.462Z,9.48
2022-11-06T21:21:16.193Z,9.40
2022-11-06T21:23:44.051Z,8.70
2022-11-06T21:26:13.615Z,8.98
2022-11-06T21:28:43.284Z,8.07
2022-11-06T21:31:13.326Z,9.95
2022-11-06T21:33:41.574Z,11.32
2022-11-06T21:36:10.544Z,11.60
2022-11-06T21:38:38.463Z,9.82
2022-11-06T21:41:07.477Z,12.48
2022-11-06T21:43:38.171Z,12.10
2022-11-06T21:46:07.035Z,10.65
2022-11-06T21:48:52.440Z,11.32
2022-11-06T21:51:21.646Z,12.18
2022-11-06T21:54:07.367Z,14.50
2022-11-06T21:57:12.532Z,10.40
2022-11-06T21:59:41.760Z,9.95
2022-11-06T22:02:10.237Z,10.48
2022-11-06T22:04:39.904Z,11.18
2022-11-06T22:07:07.725Z,11.95
2022-11-06T22:09:35.567Z,12.05
2022-11-06T22:12:03.424Z,11.52
2022-11-06T22:14:31.279Z,12.95
2022-11-06T22:16:59.162Z,10.15
2022-11-06T22:19:27.124Z,11.93
2022-11-06T22:21:56.561Z,10.93
2022-11-06T22:24:24.503Z,8.60
2022-11-06T22:26:54.156Z,14.05
2022-11-06T22:29:22.021Z,10.18
2022-11-06T22:31:52.540Z,10.50
2022-11-06T22:34:23.395Z,8.48
2022-11-06T22:36:51.248Z,10.13
2022-11-06T22:39:20.713Z,9.75
2022-11-06T22:41:49.241Z,11.85
2022-11-06T22:44:17.283Z,8.82
2022-11-06T22:46:45.771Z,8.85
2022-11-06T22:49:13.869Z,8.55
2022-11-06T22:51:42.368Z,8.95
2022-11-06T22:54:10.470Z,8.60
2022-11-06T22:56:40.044Z,9.27
2022-11-06T22:59:08.839Z,10.45
2022-11-06T23:01:41.958Z,8.85
2022-11-06T23:04:14.876Z,9.38
2022-11-06T23:06:43.567Z,8.15
2022-11-06T23:09:11.505Z,6.70
2022-11-06T23:11:40.980Z,10.05
2022-11-06T23:14:11.252Z,11.88
2022-11-06T23:16:56.853Z,11.68
2022-11-06T23:19:25.165Z,12.02
2022-11-06T23:22:13.720Z,11.57
2022-11-06T23:24:41.816Z,11.13
2022-11-06T23:27:12.137Z,12.30
2022-11-06T23:29:40.753Z,11.85
2022-11-06T23:32:08.612Z,10.65
2022-11-06T23:34:36.459Z,12.43
2022-11-06T23:37:04.645Z,13.32
2022-11-06T23:39:32.491Z,9.65
2022-11-06T23:42:00.639Z,10.63
2022-11-06T23:44:47.678Z,9.90
2022-11-06T23:47:15.529Z,10.02
2022-11-06T23:49:44.129Z,11.68
2022-11-06T23:52:11.964Z,10.05
2022-11-06T23:54:39.797Z,9.52
2022-11-06T23:57:08.701Z,13.05
2022-11-06T23:59:38.013Z,10.82
